EWG92E EDDH-EDDF
Flight info
| Callsign | EWG92E |
|---|---|
| Flight time | 0h 43m |
| Altitude | 30000 |
| Route | AMLUH2C AMLUH M852 DENIX DCT RIMET/N0454F310 T157 KOKEB/N0397F230 T157 KERAX KERAX5A |
| Aircraft | A21N/M-SDE2E3FGHIRWXY/LB1 |
Departure
| Time | 2026-05-06 14:19 |
|---|---|
| Airport | Hamburg Helmut Schmidt Airport (EDDH) |
Arrival
| Time | 2026-05-06 15:03 |
|---|---|
| Airport | Frankfurt Main Airport (EDDF) |
| Time | Latitude | Longitude | Altitude | Speed | Heading |
|---|---|---|---|---|---|
| 2026-05-06 13:41 | 53.62805 | 10.00238 | 54 ft | 0 kts | 62° |
| 2026-05-06 13:51 | 53.62800 | 10.00220 | 54 ft | 2 kts | 65° |
| 2026-05-06 13:51 | 53.62793 | 10.00196 | 47 ft | 2 kts | 56° |
| 2026-05-06 13:51 | 53.62783 | 10.00175 | 50 ft | 2 kts | 43° |
| 2026-05-06 13:52 | 53.62778 | 10.00168 | 50 ft | 2 kts | 38° |
| 2026-05-06 13:52 | 53.62765 | 10.00155 | 50 ft | 2 kts | 18° |
| 2026-05-06 13:52 | 53.62753 | 10.00152 | 52 ft | 1 kts | 348° |
| 2026-05-06 13:52 | 53.62752 | 10.00152 | 52 ft | 0 kts | 339° |
| 2026-05-06 13:55 | 53.62762 | 10.00144 | 53 ft | 6 kts | 335° |
| 2026-05-06 13:55 | 53.62808 | 10.00105 | 54 ft | 5 kts | 329° |
| 2026-05-06 13:55 | 53.62830 | 10.00052 | 50 ft | 7 kts | 287° |
| 2026-05-06 13:55 | 53.62823 | 9.99993 | 48 ft | 4 kts | 237° |
| 2026-05-06 13:56 | 53.62818 | 9.99983 | 49 ft | 0 kts | 230° |
| 2026-05-06 13:56 | 53.62812 | 9.99974 | 48 ft | 7 kts | 223° |
| 2026-05-06 13:57 | 53.62706 | 9.99872 | 49 ft | 22 kts | 207° |
| 2026-05-06 13:57 | 53.62630 | 9.99676 | 53 ft | 22 kts | 259° |
| 2026-05-06 13:57 | 53.62609 | 9.99493 | 48 ft | 29 kts | 259° |
| 2026-05-06 13:57 | 53.62582 | 9.99250 | 49 ft | 40 kts | 259° |
| 2026-05-06 13:58 | 53.62524 | 9.98738 | 50 ft | 44 kts | 258° |
| 2026-05-06 13:58 | 53.62472 | 9.98285 | 50 ft | 34 kts | 259° |
| 2026-05-06 13:58 | 53.62358 | 9.97943 | 51 ft | 34 kts | 230° |
| 2026-05-06 13:58 | 53.62247 | 9.97719 | 50 ft | 0 kts | 230° |
| 2026-05-06 13:59 | 53.62239 | 9.97703 | 53 ft | 4 kts | 230° |
| 2026-05-06 13:59 | 53.62207 | 9.97639 | 51 ft | 10 kts | 230° |
| 2026-05-06 13:59 | 53.62193 | 9.97608 | 53 ft | 0 kts | 238° |
| 2026-05-06 14:02 | 53.62192 | 9.97605 | 54 ft | 2 kts | 238° |
| 2026-05-06 14:02 | 53.62178 | 9.97527 | 49 ft | 0 kts | 272° |
| 2026-05-06 14:12 | 53.62178 | 9.97526 | 54 ft | 0 kts | 272° |
| 2026-05-06 14:13 | 53.62179 | 9.97523 | 54 ft | 1 kts | 272° |
| 2026-05-06 14:13 | 53.62181 | 9.97494 | 54 ft | 3 kts | 281° |
| 2026-05-06 14:13 | 53.62192 | 9.97445 | 51 ft | 6 kts | 300° |
| 2026-05-06 14:13 | 53.62207 | 9.97414 | 48 ft | 0 kts | 314° |
| 2026-05-06 14:18 | 53.62214 | 9.97404 | 51 ft | 6 kts | 320° |
| 2026-05-06 14:18 | 53.62292 | 9.97365 | 52 ft | 14 kts | 6° |
| 2026-05-06 14:18 | 53.62342 | 9.97421 | 51 ft | 0 kts | 50° |
| 2026-05-06 14:19 | 53.62351 | 9.97438 | 51 ft | 11 kts | 50° |
| 2026-05-06 14:19 | 53.62572 | 9.97888 | 51 ft | 89 kts | 50° |
| 2026-05-06 14:19 | 53.63146 | 9.99049 | 75 ft | 160 kts | 49° |
| 2026-05-06 14:19 | 53.63861 | 10.00525 | 800 ft | 165 kts | 50° |
| 2026-05-06 14:20 | 53.64624 | 10.01963 | 1632 ft | 163 kts | 47° |
| 2026-05-06 14:20 | 53.65422 | 10.03314 | 2474 ft | 161 kts | 47° |
| 2026-05-06 14:20 | 53.66146 | 10.04843 | 2948 ft | 178 kts | 54° |
| 2026-05-06 14:20 | 53.66910 | 10.06633 | 3264 ft | 196 kts | 54° |
| 2026-05-06 14:21 | 53.67760 | 10.08569 | 3496 ft | 220 kts | 53° |
| 2026-05-06 14:21 | 53.68731 | 10.10704 | 3911 ft | 236 kts | 53° |
| 2026-05-06 14:21 | 53.69761 | 10.12912 | 4498 ft | 243 kts | 53° |
| 2026-05-06 14:21 | 53.70844 | 10.15189 | 4900 ft | 250 kts | 52° |
| 2026-05-06 14:22 | 53.71705 | 10.17715 | 4977 ft | 248 kts | 78° |
| 2026-05-06 14:22 | 53.71439 | 10.20553 | 5097 ft | 256 kts | 120° |
| 2026-05-06 14:22 | 53.70008 | 10.22382 | 5702 ft | 272 kts | 162° |
| 2026-05-06 14:22 | 53.68106 | 10.22566 | 6800 ft | 276 kts | 178° |
| 2026-05-06 14:23 | 53.66199 | 10.22654 | 7905 ft | 278 kts | 175° |
| 2026-05-06 14:23 | 53.64259 | 10.22981 | 8917 ft | 282 kts | 170° |
| 2026-05-06 14:23 | 53.62326 | 10.23531 | 9588 ft | 285 kts | 168° |
| 2026-05-06 14:23 | 53.60364 | 10.24236 | 9848 ft | 288 kts | 166° |
| 2026-05-06 14:24 | 53.58410 | 10.25025 | 9879 ft | 291 kts | 165° |
| 2026-05-06 14:24 | 53.56342 | 10.25904 | 10070 ft | 320 kts | 165° |
| 2026-05-06 14:24 | 53.54886 | 10.26525 | 10378 ft | 333 kts | 164° |
| 2026-05-06 14:24 | 53.51870 | 10.27812 | 11506 ft | 340 kts | 164° |
| 2026-05-06 14:25 | 53.49581 | 10.28804 | 12401 ft | 344 kts | 164° |
| 2026-05-06 14:25 | 53.48039 | 10.29478 | 13045 ft | 345 kts | 165° |
| 2026-05-06 14:25 | 53.45699 | 10.30511 | 13968 ft | 348 kts | 165° |
| 2026-05-06 14:25 | 53.43335 | 10.31555 | 14730 ft | 354 kts | 166° |
| 2026-05-06 14:26 | 53.41240 | 10.32425 | 15394 ft | 359 kts | 167° |
| 2026-05-06 14:26 | 53.38791 | 10.33412 | 16157 ft | 363 kts | 167° |
| 2026-05-06 14:26 | 53.36332 | 10.34417 | 16989 ft | 366 kts | 168° |
| 2026-05-06 14:26 | 53.34964 | 10.34989 | 17433 ft | 368 kts | 167° |
| 2026-05-06 14:27 | 53.33159 | 10.35760 | 17981 ft | 372 kts | 167° |
| 2026-05-06 14:27 | 53.30635 | 10.36861 | 18643 ft | 376 kts | 167° |
| 2026-05-06 14:27 | 53.28092 | 10.37990 | 19254 ft | 381 kts | 167° |
| 2026-05-06 14:27 | 53.25510 | 10.39146 | 19878 ft | 385 kts | 166° |
| 2026-05-06 14:28 | 53.22906 | 10.40314 | 20482 ft | 389 kts | 166° |
| 2026-05-06 14:28 | 53.20281 | 10.41492 | 21102 ft | 393 kts | 166° |
| 2026-05-06 14:28 | 53.17625 | 10.42681 | 21736 ft | 396 kts | 166° |
| 2026-05-06 14:28 | 53.14949 | 10.43876 | 22377 ft | 400 kts | 166° |
| 2026-05-06 14:29 | 53.12208 | 10.44841 | 22972 ft | 404 kts | 174° |
| 2026-05-06 14:29 | 53.09421 | 10.44976 | 23592 ft | 406 kts | 182° |
| 2026-05-06 14:29 | 53.06590 | 10.44643 | 24054 ft | 411 kts | 185° |
| 2026-05-06 14:29 | 53.03722 | 10.44097 | 24561 ft | 414 kts | 186° |
| 2026-05-06 14:30 | 53.00858 | 10.43506 | 25050 ft | 416 kts | 186° |
| 2026-05-06 14:30 | 52.97974 | 10.42947 | 25534 ft | 418 kts | 186° |
| 2026-05-06 14:30 | 52.95076 | 10.42444 | 25932 ft | 422 kts | 185° |
| 2026-05-06 14:30 | 52.92130 | 10.41985 | 26350 ft | 425 kts | 184° |
| 2026-05-06 14:31 | 52.89172 | 10.41560 | 26786 ft | 427 kts | 184° |
| 2026-05-06 14:31 | 52.86186 | 10.41152 | 27202 ft | 430 kts | 184° |
| 2026-05-06 14:31 | 52.83235 | 10.40758 | 27624 ft | 432 kts | 184° |
| 2026-05-06 14:31 | 52.80216 | 10.40357 | 28021 ft | 435 kts | 183° |
| 2026-05-06 14:32 | 52.77188 | 10.39954 | 28411 ft | 438 kts | 184° |
| 2026-05-06 14:32 | 52.74141 | 10.39547 | 28819 ft | 440 kts | 184° |
| 2026-05-06 14:32 | 52.71077 | 10.39135 | 29200 ft | 442 kts | 184° |
| 2026-05-06 14:32 | 52.67994 | 10.38720 | 29576 ft | 444 kts | 184° |
| 2026-05-06 14:33 | 52.64936 | 10.38310 | 29800 ft | 445 kts | 184° |
| 2026-05-06 14:33 | 52.61847 | 10.37896 | 29812 ft | 444 kts | 184° |
| 2026-05-06 14:33 | 52.55620 | 10.37060 | 29808 ft | 454 kts | 183° |
| 2026-05-06 14:34 | 52.49347 | 10.36202 | 29806 ft | 456 kts | 185° |
| 2026-05-06 14:34 | 52.43047 | 10.35344 | 29805 ft | 456 kts | 185° |
| 2026-05-06 14:35 | 52.36737 | 10.34498 | 29804 ft | 456 kts | 185° |
| 2026-05-06 14:35 | 52.30413 | 10.33659 | 29796 ft | 456 kts | 186° |
| 2026-05-06 14:36 | 52.25159 | 10.32963 | 29802 ft | 455 kts | 186° |
| 2026-05-06 14:36 | 52.20063 | 10.32290 | 29796 ft | 455 kts | 186° |
| 2026-05-06 14:37 | 52.13750 | 10.31459 | 29795 ft | 455 kts | 186° |
| 2026-05-06 14:37 | 52.10588 | 10.31044 | 29684 ft | 453 kts | 186° |
| 2026-05-06 14:37 | 52.07451 | 10.30633 | 29254 ft | 454 kts | 186° |
| 2026-05-06 14:38 | 52.04326 | 10.30221 | 28739 ft | 455 kts | 186° |
| 2026-05-06 14:38 | 52.01154 | 10.29796 | 28260 ft | 457 kts | 186° |
| 2026-05-06 14:38 | 51.97975 | 10.29366 | 27938 ft | 459 kts | 186° |
| 2026-05-06 14:38 | 51.94797 | 10.28934 | 27761 ft | 460 kts | 186° |
| 2026-05-06 14:39 | 51.91590 | 10.28500 | 27624 ft | 460 kts | 186° |
| 2026-05-06 14:39 | 51.88409 | 10.28074 | 27468 ft | 460 kts | 186° |
| 2026-05-06 14:39 | 51.85220 | 10.27644 | 27317 ft | 452 kts | 187° |
| 2026-05-06 14:39 | 51.82140 | 10.27230 | 27148 ft | 446 kts | 187° |
| 2026-05-06 14:40 | 51.79046 | 10.26822 | 26989 ft | 444 kts | 187° |
| 2026-05-06 14:40 | 51.76005 | 10.26425 | 26829 ft | 444 kts | 187° |
| 2026-05-06 14:40 | 51.72924 | 10.26025 | 26665 ft | 444 kts | 187° |
| 2026-05-06 14:40 | 51.69863 | 10.25586 | 26513 ft | 444 kts | 190° |
| 2026-05-06 14:41 | 51.66834 | 10.24460 | 26361 ft | 442 kts | 199° |
| 2026-05-06 14:41 | 51.63938 | 10.22794 | 26203 ft | 441 kts | 202° |
| 2026-05-06 14:41 | 51.61063 | 10.21026 | 26048 ft | 442 kts | 202° |
| 2026-05-06 14:41 | 51.58184 | 10.19242 | 25878 ft | 443 kts | 202° |
| 2026-05-06 14:42 | 51.55298 | 10.17484 | 25721 ft | 444 kts | 202° |
| 2026-05-06 14:42 | 51.52429 | 10.15773 | 25565 ft | 444 kts | 202° |
| 2026-05-06 14:42 | 51.49515 | 10.14068 | 25177 ft | 444 kts | 201° |
| 2026-05-06 14:42 | 51.46600 | 10.12384 | 24867 ft | 446 kts | 201° |
| 2026-05-06 14:43 | 51.43659 | 10.10697 | 24769 ft | 451 kts | 201° |
| 2026-05-06 14:43 | 51.40693 | 10.09004 | 24770 ft | 453 kts | 201° |
| 2026-05-06 14:43 | 51.37714 | 10.07306 | 24766 ft | 453 kts | 201° |
| 2026-05-06 14:43 | 51.34741 | 10.05616 | 24761 ft | 452 kts | 201° |
| 2026-05-06 14:44 | 51.31807 | 10.03949 | 24768 ft | 451 kts | 201° |
| 2026-05-06 14:44 | 51.28850 | 10.02273 | 24736 ft | 450 kts | 201° |
| 2026-05-06 14:44 | 51.25943 | 10.00631 | 24401 ft | 448 kts | 201° |
| 2026-05-06 14:45 | 51.20023 | 9.97286 | 23689 ft | 453 kts | 201° |
| 2026-05-06 14:45 | 51.17037 | 9.95593 | 23327 ft | 453 kts | 201° |
| 2026-05-06 14:45 | 51.14059 | 9.93964 | 22891 ft | 452 kts | 200° |
| 2026-05-06 14:45 | 51.11065 | 9.92435 | 22479 ft | 451 kts | 200° |
| 2026-05-06 14:46 | 51.08127 | 9.90904 | 22078 ft | 450 kts | 200° |
| 2026-05-06 14:46 | 51.05150 | 9.89235 | 21662 ft | 447 kts | 202° |
| 2026-05-06 14:46 | 51.02254 | 9.87446 | 21273 ft | 444 kts | 202° |
| 2026-05-06 14:46 | 50.99494 | 9.85781 | 20898 ft | 441 kts | 202° |
| 2026-05-06 14:47 | 50.97540 | 9.84640 | 20632 ft | 440 kts | 201° |
| 2026-05-06 14:47 | 50.95794 | 9.83642 | 20405 ft | 439 kts | 201° |
| 2026-05-06 14:47 | 50.92917 | 9.82029 | 20024 ft | 435 kts | 201° |
| 2026-05-06 14:47 | 50.90056 | 9.80451 | 19643 ft | 435 kts | 200° |
| 2026-05-06 14:48 | 50.88154 | 9.79409 | 19399 ft | 435 kts | 200° |
| 2026-05-06 14:48 | 50.85844 | 9.78149 | 19102 ft | 432 kts | 200° |
| 2026-05-06 14:48 | 50.83051 | 9.76634 | 18739 ft | 428 kts | 200° |
| 2026-05-06 14:48 | 50.80234 | 9.75111 | 18387 ft | 428 kts | 200° |
| 2026-05-06 14:49 | 50.77412 | 9.73586 | 18035 ft | 428 kts | 200° |
| 2026-05-06 14:49 | 50.74596 | 9.72064 | 17631 ft | 427 kts | 200° |
| 2026-05-06 14:49 | 50.71787 | 9.70549 | 17217 ft | 425 kts | 200° |
| 2026-05-06 14:49 | 50.68997 | 9.69046 | 16819 ft | 423 kts | 200° |
| 2026-05-06 14:50 | 50.66209 | 9.67547 | 16429 ft | 421 kts | 200° |
| 2026-05-06 14:50 | 50.63442 | 9.66062 | 16039 ft | 419 kts | 200° |
| 2026-05-06 14:50 | 50.60678 | 9.64581 | 15660 ft | 417 kts | 200° |
| 2026-05-06 14:50 | 50.57934 | 9.63112 | 15282 ft | 413 kts | 200° |
| 2026-05-06 14:51 | 50.55238 | 9.61674 | 14842 ft | 408 kts | 199° |
| 2026-05-06 14:51 | 50.52589 | 9.60265 | 14290 ft | 406 kts | 200° |
| 2026-05-06 14:51 | 50.50025 | 9.58545 | 13744 ft | 403 kts | 206° |
| 2026-05-06 14:51 | 50.47847 | 9.57026 | 13230 ft | 401 kts | 204° |
| 2026-05-06 14:52 | 50.45443 | 9.55382 | 12670 ft | 398 kts | 204° |
| 2026-05-06 14:52 | 50.42902 | 9.53676 | 12055 ft | 394 kts | 204° |
| 2026-05-06 14:52 | 50.40385 | 9.52015 | 11492 ft | 389 kts | 203° |
| 2026-05-06 14:52 | 50.37918 | 9.50407 | 10996 ft | 387 kts | 203° |
| 2026-05-06 14:53 | 50.37034 | 9.49833 | 10822 ft | 386 kts | 203° |
| 2026-05-06 14:53 | 50.34737 | 9.48348 | 10362 ft | 383 kts | 203° |
| 2026-05-06 14:53 | 50.32276 | 9.46762 | 9878 ft | 380 kts | 203° |
| 2026-05-06 14:53 | 50.29834 | 9.45191 | 9363 ft | 377 kts | 203° |
| 2026-05-06 14:54 | 50.27412 | 9.43638 | 8851 ft | 375 kts | 203° |
| 2026-05-06 14:54 | 50.24996 | 9.42105 | 8359 ft | 374 kts | 201° |
| 2026-05-06 14:54 | 50.22555 | 9.40720 | 7947 ft | 371 kts | 204° |
| 2026-05-06 14:54 | 50.20557 | 9.38429 | 7534 ft | 367 kts | 231° |
| 2026-05-06 14:55 | 50.20043 | 9.37219 | 7393 ft | 366 kts | 242° |
| 2026-05-06 14:55 | 50.19456 | 9.33681 | 7034 ft | 366 kts | 266° |
| 2026-05-06 14:55 | 50.19466 | 9.29715 | 6698 ft | 366 kts | 266° |
| 2026-05-06 14:55 | 50.19226 | 9.25789 | 6342 ft | 362 kts | 260° |
| 2026-05-06 14:56 | 50.18759 | 9.21946 | 5971 ft | 360 kts | 256° |
| 2026-05-06 14:56 | 50.18130 | 9.18181 | 5589 ft | 357 kts | 253° |
| 2026-05-06 14:56 | 50.17405 | 9.14482 | 5206 ft | 355 kts | 251° |
| 2026-05-06 14:56 | 50.16641 | 9.10889 | 4838 ft | 353 kts | 250° |
| 2026-05-06 14:57 | 50.16376 | 9.09681 | 4693 ft | 352 kts | 250° |
| 2026-05-06 14:57 | 50.15611 | 9.06269 | 4352 ft | 351 kts | 250° |
| 2026-05-06 14:57 | 50.14795 | 9.02698 | 4037 ft | 349 kts | 249° |
| 2026-05-06 14:57 | 50.13967 | 8.99119 | 3989 ft | 349 kts | 249° |
| 2026-05-06 14:58 | 50.13124 | 8.95589 | 3989 ft | 345 kts | 248° |
| 2026-05-06 14:58 | 50.12273 | 8.92263 | 3982 ft | 308 kts | 247° |
| 2026-05-06 14:58 | 50.11495 | 8.89444 | 3976 ft | 263 kts | 246° |
| 2026-05-06 14:58 | 50.10829 | 8.86999 | 3971 ft | 228 kts | 247° |
| 2026-05-06 14:59 | 50.10290 | 8.84845 | 3968 ft | 209 kts | 249° |
| 2026-05-06 14:59 | 50.09782 | 8.82720 | 3841 ft | 208 kts | 249° |
| 2026-05-06 14:59 | 50.09288 | 8.80655 | 3507 ft | 200 kts | 249° |
| 2026-05-06 14:59 | 50.08797 | 8.78615 | 3151 ft | 198 kts | 250° |
| 2026-05-06 15:00 | 50.08318 | 8.76611 | 2822 ft | 197 kts | 250° |
| 2026-05-06 15:00 | 50.07842 | 8.74612 | 2543 ft | 197 kts | 250° |
| 2026-05-06 15:00 | 50.07368 | 8.72624 | 2288 ft | 194 kts | 251° |
| 2026-05-06 15:00 | 50.06906 | 8.70695 | 2017 ft | 183 kts | 251° |
| 2026-05-06 15:01 | 50.06480 | 8.68919 | 1800 ft | 176 kts | 251° |
| 2026-05-06 15:01 | 50.06059 | 8.67144 | 1600 ft | 175 kts | 253° |
| 2026-05-06 15:01 | 50.05769 | 8.65302 | 1452 ft | 174 kts | 260° |
| 2026-05-06 15:01 | 50.05572 | 8.63484 | 1210 ft | 171 kts | 259° |
| 2026-05-06 15:02 | 50.05248 | 8.61804 | 816 ft | 154 kts | 253° |
| 2026-05-06 15:02 | 50.04894 | 8.60293 | 619 ft | 146 kts | 250° |
| 2026-05-06 15:02 | 50.04541 | 8.58822 | 405 ft | 141 kts | 252° |
| 2026-05-06 15:02 | 50.04243 | 8.57526 | 367 ft | 91 kts | 250° |
| 2026-05-06 15:03 | 50.04149 | 8.57146 | 368 ft | 46 kts | 249° |
| 2026-05-06 15:03 | 50.04015 | 8.56605 | 366 ft | 39 kts | 248° |
| 2026-05-06 15:03 | 50.03994 | 8.56357 | 361 ft | 12 kts | 279° |
| 2026-05-06 15:03 | 50.04008 | 8.56232 | 364 ft | 6 kts | 280° |
| 2026-05-06 15:04 | 50.04008 | 8.56230 | 364 ft | 0 kts | 280° |
| 2026-05-06 15:06 | 50.04009 | 8.56227 | 364 ft | 1 kts | 280° |
| 2026-05-06 15:06 | 50.04016 | 8.56172 | 365 ft | 7 kts | 290° |
| 2026-05-06 15:06 | 50.04044 | 8.56137 | 366 ft | 8 kts | 346° |
| 2026-05-06 15:06 | 50.04109 | 8.56194 | 367 ft | 7 kts | 71° |
| 2026-05-06 15:07 | 50.04124 | 8.56263 | 363 ft | 14 kts | 72° |
| 2026-05-06 15:07 | 50.04170 | 8.56461 | 365 ft | 21 kts | 70° |
| 2026-05-06 15:07 | 50.04206 | 8.56617 | 366 ft | 9 kts | 70° |
| 2026-05-06 15:07 | 50.04229 | 8.56713 | 365 ft | 11 kts | 70° |
| 2026-05-06 15:08 | 50.04267 | 8.56795 | 368 ft | 8 kts | 27° |
| 2026-05-06 15:08 | 50.04320 | 8.56819 | 367 ft | 9 kts | 12° |
| 2026-05-06 15:08 | 50.04457 | 8.56859 | 362 ft | 26 kts | 12° |
| 2026-05-06 15:08 | 50.04621 | 8.56918 | 362 ft | 22 kts | 17° |
| 2026-05-06 15:09 | 50.04727 | 8.56989 | 369 ft | 17 kts | 22° |
| 2026-05-06 15:09 | 50.04831 | 8.57061 | 368 ft | 8 kts | 24° |
| 2026-05-06 15:09 | 50.04840 | 8.57073 | 366 ft | 5 kts | 44° |
| 2026-05-06 15:09 | 50.04851 | 8.57104 | 364 ft | 1 kts | 80° |
| 2026-05-06 15:10 | 50.04842 | 8.57114 | 368 ft | 4 kts | 156° |
| 2026-05-06 15:10 | 50.04820 | 8.57156 | 367 ft | 4 kts | 112° |
| 2026-05-06 15:10 | 50.04816 | 8.57170 | 370 ft | 0 kts | 116° |